La rose des vents
Donnes mto: Semaine 03/01/22 - 09/01/22 (S 1)
Date Horaire Temp. E. Hum. E. P.atmo. Pluie Vent 1mn Direction Ensoleilleme Ev.Tr. Solaire P. de rose Temp au vent Rafales
03/01/2022 00:00 7,2 C 93 % 1022,8 hPa 0,0 l/m 0,0 km/h (0 Bft) N 0,00 h 0,000 mm 0 W/m 6,2 C 7,2 C 0,0 km/h (0 Bft)
03/01/2022 01:00 6,9 C 94 % 1022,2 hPa 0,0 l/m 0,0 km/h (0 Bft) N 0,00 h 0,000 mm 0 W/m 6,1 C 6,9 C 0,0 km/h (0 Bft)
03/01/2022 02:00 7,1 C 96 % 1021,9 hPa 0,0 l/m 0,0 km/h (0 Bft) N 0,00 h 0,000 mm 0 W/m 6,5 C 7,1 C 0,0 km/h (0 Bft)
03/01/2022 03:00 7,4 C 96 % 1021,5 hPa 0,0 l/m 0,0 km/h (0 Bft) N 0,00 h 0,000 mm 0 W/m 6,9 C 7,4 C 0,0 km/h (0 Bft)
03/01/2022 04:00 8,0 C 97 % 1021,2 hPa 0,0 l/m 0,0 km/h (0 Bft) N 0,00 h 0,000 mm 0 W/m 7,5 C 8,0 C 0,3 km/h (0 Bft)
03/01/2022 05:00 8,0 C 96 % 1020,8 hPa 0,0 l/m 0,1 km/h (0 Bft) O 0,00 h 0,000 mm 0 W/m 7,3 C 8,0 C 1,3 km/h (1 Bft)
03/01/2022 06:00 8,0 C 95 % 1020,7 hPa 0,0 l/m 0,3 km/h (0 Bft) O 0,00 h 0,000 mm 0 W/m 7,2 C 8,0 C 1,6 km/h (1 Bft)
03/01/2022 07:00 7,9 C 94 % 1020,5 hPa 0,0 l/m 0,1 km/h (0 Bft) O 0,00 h 0,000 mm 0 W/m 7,0 C 7,9 C 1,3 km/h (1 Bft)
03/01/2022 08:00 8,0 C 94 % 1020,5 hPa 0,0 l/m 0,0 km/h (0 Bft) O 0,05 h 0,000 mm 24 W/m 7,1 C 8,0 C 0,2 km/h (0 Bft)
03/01/2022 09:00 9,0 C 94 % 1020,5 hPa 0,0 l/m 0,0 km/h (0 Bft) N 0,30 h 0,000 mm 101 W/m 8,1 C 9,0 C 0,0 km/h (0 Bft)
03/01/2022 10:00 11,3 C 89 % 1020,4 hPa 0,0 l/m 0,0 km/h (0 Bft) N 0,67 h 0,051 mm 206 W/m 9,6 C 11,3 C 0,0 km/h (0 Bft)
03/01/2022 11:00 14,5 C 80 % 1019,7 hPa 0,0 l/m 0,0 km/h (0 Bft) N 1,00 h 0,102 mm 324 W/m 11,0 C 14,5 C 0,0 km/h (0 Bft)
03/01/2022 12:00 14,6 C 79 % 1018,8 hPa 0,0 l/m 0,1 km/h (0 Bft) N-NE 0,55 h 0,178 mm 241 W/m 10,9 C 14,6 C 0,5 km/h (0 Bft)
03/01/2022 13:00 14,1 C 81 % 1017,8 hPa 0,0 l/m 0,0 km/h (0 Bft) N 0,55 h 0,127 mm 222 W/m 10,9 C 14,1 C 0,2 km/h (0 Bft)
03/01/2022 14:00 15,1 C 77 % 1016,9 hPa 0,0 l/m 0,0 km/h (0 Bft) N 1,00 h 0,127 mm 221 W/m 11,2 C 15,1 C 0,0 km/h (0 Bft)
03/01/2022 15:00 14,2 C 79 % 1016,5 hPa 0,0 l/m 0,0 km/h (0 Bft) N-NE 0,87 h 0,127 mm 138 W/m 10,6 C 14,2 C 0,2 km/h (0 Bft)
03/01/2022 16:00 12,7 C 84 % 1016,5 hPa 0,0 l/m 0,0 km/h (0 Bft) N 0,08 h 0,076 mm 36 W/m 10,0 C 12,7 C 0,0 km/h (0 Bft)
03/01/2022 17:00 11,1 C 87 % 1016,6 hPa 0,0 l/m 0,0 km/h (0 Bft) N 0,00 h 0,025 mm 5 W/m 9,1 C 11,1 C 0,0 km/h (0 Bft)
03/01/2022 18:00 10,2 C 90 % 1016,7 hPa 0,0 l/m 0,0 km/h (0 Bft) N 0,00 h 0,000 mm 0 W/m 8,6 C 10,2 C 0,0 km/h (0 Bft)
03/01/2022 19:00 9,7 C 93 % 1016,9 hPa 0,0 l/m 0,0 km/h (0 Bft) N 0,00 h 0,000 mm 0 W/m 8,6 C 9,7 C 0,0 km/h (0 Bft)
03/01/2022 20:00 9,4 C 94 % 1017,0 hPa 0,0 l/m 0,0 km/h (0 Bft) N 0,00 h 0,000 mm 0 W/m 8,5 C 9,4 C 0,0 km/h (0 Bft)
03/01/2022 21:00 8,9 C 94 % 1016,7 hPa 0,0 l/m 0,0 km/h (0 Bft) N 0,00 h 0,000 mm 0 W/m 8,0 C 8,9 C 0,0 km/h (0 Bft)
03/01/2022 22:00 9,0 C 95 % 1016,4 hPa 0,0 l/m 0,0 km/h (0 Bft) N 0,00 h 0,000 mm 0 W/m 8,2 C 9,0 C 0,1 km/h (0 Bft)
03/01/2022 23:00 8,9 C 94 % 1015,9 hPa 0,0 l/m 0,0 km/h (0 Bft) N 0,00 h 0,000 mm 0 W/m 7,9 C 8,9 C 0,0 km/h (0 Bft)
04/01/2022 00:00 8,8 C 94 % 1015,6 hPa 0,0 l/m 0,0 km/h (0 Bft) N 0,00 h 0,000 mm 0 W/m 7,9 C 8,8 C 0,0 km/h (0 Bft)
04/01/2022 01:00 8,7 C 93 % 1014,7 hPa 0,0 l/m 0,0 km/h (0 Bft) N 0,00 h 0,000 mm 0 W/m 7,7 C 8,7 C 0,0 km/h (0 Bft)
04/01/2022 02:00 8,5 C 93 % 1014,2 hPa 0,0 l/m 0,0 km/h (0 Bft) N 0,00 h 0,000 mm 0 W/m 7,4 C 8,5 C 0,0 km/h (0 Bft)
04/01/2022 03:00 8,2 C 94 % 1013,9 hPa 0,0 l/m 0,0 km/h (0 Bft) N 0,00 h 0,000 mm 0 W/m 7,3 C 8,2 C 0,1 km/h (0 Bft)
04/01/2022 04:00 7,8 C 94 % 1013,4 hPa 0,2 l/m 0,0 km/h (0 Bft) N 0,00 h 0,000 mm 0 W/m 7,0 C 7,8 C 0,0 km/h (0 Bft)
04/01/2022 05:00 7,6 C 95 % 1013,0 hPa 0,0 l/m 0,0 km/h (0 Bft) N 0,00 h 0,000 mm 0 W/m 6,9 C 7,6 C 0,0 km/h (0 Bft)
04/01/2022 06:00 7,5 C 95 % 1012,9 hPa 0,0 l/m 0,0 km/h (0 Bft) N 0,00 h 0,000 mm 0 W/m 6,7 C 7,5 C 0,0 km/h (0 Bft)
04/01/2022 07:00 7,1 C 95 % 1013,0 hPa 0,0 l/m 0,0 km/h (0 Bft) N 0,00 h 0,000 mm 0 W/m 6,4 C 7,1 C 0,0 km/h (0 Bft)
04/01/2022 08:00 6,9 C 96 % 1013,0 hPa 0,0 l/m 0,1 km/h (0 Bft) N 0,10 h 0,000 mm 23 W/m 6,4 C 6,9 C 0,7 km/h (0 Bft)
04/01/2022 09:00 8,3 C 97 % 1013,0 hPa 0,0 l/m 0,6 km/h (0 Bft) NO 0,00 h 0,000 mm 50 W/m 7,9 C 8,3 C 2,2 km/h (1 Bft)
04/01/2022 10:00 9,4 C 97 % 1012,6 hPa 0,0 l/m 0,4 km/h (0 Bft) NO 0,02 h 0,025 mm 98 W/m 8,9 C 9,4 C 1,4 km/h (1 Bft)
04/01/2022 11:00 11,5 C 93 % 1012,2 hPa 0,0 l/m 1,5 km/h (1 Bft) S-SO 0,00 h 0,051 mm 114 W/m 10,3 C 11,5 C 4,5 km/h (1 Bft)
04/01/2022 12:00 12,0 C 90 % 1011,5 hPa 0,0 l/m 2,1 km/h (1 Bft) S-SO 0,00 h 0,051 mm 114 W/m 10,5 C 12,0 C 5,5 km/h (1 Bft)
04/01/2022 13:00 12,3 C 90 % 1010,4 hPa 0,0 l/m 0,4 km/h (0 Bft) S-SE 0,00 h 0,051 mm 82 W/m 10,6 C 12,3 C 1,3 km/h (1 Bft)
04/01/2022 14:00 11,8 C 91 % 1009,9 hPa 0,0 l/m 0,0 km/h (0 Bft) N 0,00 h 0,051 mm 66 W/m 10,4 C 11,8 C 0,0 km/h (0 Bft)
04/01/2022 15:00 11,9 C 91 % 1009,1 hPa 0,0 l/m 0,0 km/h (0 Bft) N 0,00 h 0,025 mm 65 W/m 10,6 C 11,9 C 0,0 km/h (0 Bft)
04/01/2022 16:00 12,0 C 91 % 1008,7 hPa 0,0 l/m 0,0 km/h (0 Bft) N 0,00 h 0,025 mm 19 W/m 10,6 C 12,0 C 0,0 km/h (0 Bft)
04/01/2022 17:00 11,5 C 92 % 1008,4 hPa 0,0 l/m 0,0 km/h (0 Bft) N 0,00 h 0,000 mm 0 W/m 10,3 C 11,5 C 0,0 km/h (0 Bft)
04/01/2022 18:00 11,1 C 93 % 1008,1 hPa 0,0 l/m 0,0 km/h (0 Bft) N 0,00 h 0,000 mm 0 W/m 10,0 C 11,1 C 0,0 km/h (0 Bft)
04/01/2022 19:00 11,0 C 93 % 1008,0 hPa 0,0 l/m 0,0 km/h (0 Bft) N 0,00 h 0,000 mm 0 W/m 10,0 C 11,0 C 0,0 km/h (0 Bft)
04/01/2022 20:00 11,1 C 95 % 1007,6 hPa 0,0 l/m 0,0 km/h (0 Bft) N 0,00 h 0,000 mm 0 W/m 10,3 C 11,1 C 0,0 km/h (0 Bft)
04/01/2022 21:00 11,1 C 95 % 1007,2 hPa 0,0 l/m 0,0 km/h (0 Bft) N 0,00 h 0,000 mm 0 W/m 10,4 C 11,1 C 0,0 km/h (0 Bft)
04/01/2022 22:00 11,0 C 95 % 1006,7 hPa 0,0 l/m 0,0 km/h (0 Bft) N 0,00 h 0,000 mm 0 W/m 10,2 C 11,0 C 0,0 km/h (0 Bft)
04/01/2022 23:00 10,7 C 95 % 1006,1 hPa 0,0 l/m 0,0 km/h (0 Bft) N 0,00 h 0,000 mm 0 W/m 10,0 C 10,7 C 0,2 km/h (0 Bft)
05/01/2022 00:00 10,6 C 96 % 1005,7 hPa 0,2 l/m 0,0 km/h (0 Bft) N 0,00 h 0,000 mm 0 W/m 10,0 C 10,6 C 0,0 km/h (0 Bft)
05/01/2022 01:00 10,6 C 96 % 1004,9 hPa 0,0 l/m 0,0 km/h (0 Bft) N 0,00 h 0,000 mm 0 W/m 10,1 C 10,6 C 0,0 km/h (0 Bft)
05/01/2022 02:00 10,6 C 97 % 1003,9 hPa 0,0 l/m 0,0 km/h (0 Bft) N 0,00 h 0,000 mm 0 W/m 10,1 C 10,6 C 0,0 km/h (0 Bft)
05/01/2022 03:00 10,6 C 97 % 1003,0 hPa 0,0 l/m 0,0 km/h (0 Bft) N 0,00 h 0,000 mm 0 W/m 10,1 C 10,6 C 0,0 km/h (0 Bft)
05/01/2022 04:00 10,4 C 97 % 1002,0 hPa 0,0 l/m 0,0 km/h (0 Bft) N 0,00 h 0,000 mm 0 W/m 9,9 C 10,4 C 0,0 km/h (0 Bft)
05/01/2022 05:00 10,4 C 97 % 1001,6 hPa 0,0 l/m 0,0 km/h (0 Bft) N 0,00 h 0,000 mm 0 W/m 9,9 C 10,4 C 0,0 km/h (0 Bft)
05/01/2022 06:00 10,4 C 97 % 1000,9 hPa 0,0 l/m 0,0 km/h (0 Bft) N 0,00 h 0,000 mm 0 W/m 9,9 C 10,4 C 0,4 km/h (0 Bft)
05/01/2022 07:00 10,4 C 97 % 1000,5 hPa 0,0 l/m 0,0 km/h (0 Bft) N 0,00 h 0,000 mm 0 W/m 9,9 C 10,4 C 0,0 km/h (0 Bft)
05/01/2022 08:00 10,2 C 97 % 1000,2 hPa 0,0 l/m 0,0 km/h (0 Bft) N 0,02 h 0,000 mm 17 W/m 9,7 C 10,2 C 0,0 km/h (0 Bft)
05/01/2022 09:00 10,4 C 97 % 999,9 hPa 0,0 l/m 0,0 km/h (0 Bft) N 0,08 h 0,000 mm 48 W/m 10,0 C 10,4 C 0,0 km/h (0 Bft)
05/01/2022 10:00 11,6 C 97 % 999,3 hPa 0,0 l/m 0,0 km/h (0 Bft) N 0,57 h 0,025 mm 188 W/m 11,2 C 11,6 C 0,0 km/h (0 Bft)
05/01/2022 11:00 13,8 C 91 % 998,9 hPa 0,0 l/m 0,0 km/h (0 Bft) N 0,60 h 0,076 mm 261 W/m 12,3 C 13,8 C 0,0 km/h (0 Bft)
05/01/2022 12:00 15,7 C 82 % 998,1 hPa 0,0 l/m 1,0 km/h (0 Bft) SE 0,83 h 0,127 mm 361 W/m 12,6 C 15,7 C 4,0 km/h (1 Bft)
05/01/2022 13:00 15,8 C 80 % 997,1 hPa 0,0 l/m 0,5 km/h (0 Bft) S-SE 0,85 h 0,203 mm 331 W/m 12,3 C 15,8 C 2,6 km/h (1 Bft)
05/01/2022 14:00 15,1 C 82 % 996,1 hPa 0,0 l/m 0,5 km/h (0 Bft) S 0,45 h 0,178 mm 202 W/m 12,1 C 15,1 C 2,0 km/h (1 Bft)
05/01/2022 15:00 13,2 C 88 % 995,7 hPa 0,0 l/m 0,0 km/h (0 Bft) N 0,00 h 0,102 mm 61 W/m 11,2 C 13,2 C 0,1 km/h (0 Bft)
05/01/2022 16:00 12,8 C 90 % 995,7 hPa 0,0 l/m 0,0 km/h (0 Bft) N 0,00 h 0,025 mm 19 W/m 11,2 C 12,8 C 0,1 km/h (0 Bft)
05/01/2022 17:00 11,7 C 88 % 996,4 hPa 0,0 l/m 1,0 km/h (0 Bft) E 0,00 h 0,000 mm 5 W/m 9,8 C 11,7 C 5,2 km/h (1 Bft)
05/01/2022 18:00 10,9 C 84 % 997,6 hPa 0,0 l/m 1,5 km/h (1 Bft) E 0,00 h 0,000 mm 0 W/m 8,3 C 10,9 C 6,5 km/h (2 Bft)
05/01/2022 19:00 10,9 C 84 % 998,5 hPa 0,0 l/m 1,4 km/h (1 Bft) E 0,00 h 0,025 mm 0 W/m 8,3 C 10,9 C 5,2 km/h (1 Bft)
05/01/2022 20:00 10,6 C 80 % 999,2 hPa 0,0 l/m 1,5 km/h (1 Bft) E 0,00 h 0,025 mm 0 W/m 7,4 C 10,6 C 4,7 km/h (1 Bft)
05/01/2022 21:00 8,8 C 87 % 1000,1 hPa 4,6 l/m 1,0 km/h (0 Bft) O-NO 0,00 h 0,025 mm 0 W/m 6,7 C 8,8 C 3,1 km/h (1 Bft)
05/01/2022 22:00 7,4 C 93 % 1001,0 hPa 3,2 l/m 3,1 km/h (1 Bft) NO 0,00 h 0,000 mm 0 W/m 6,4 C 7,2 C 6,7 km/h (2 Bft)
05/01/2022 23:00 6,9 C 96 % 1001,3 hPa 0,2 l/m 3,6 km/h (1 Bft) NO 0,00 h 0,000 mm 0 W/m 6,2 C 6,5 C 8,2 km/h (2 Bft)
06/01/2022 00:00 6,8 C 96 % 1001,9 hPa 0,6 l/m 2,1 km/h (1 Bft) NO 0,00 h 0,000 mm 0 W/m 6,2 C 6,7 C 5,4 km/h (1 Bft)
06/01/2022 01:00 6,6 C 96 % 1003,1 hPa 5,2 l/m 2,6 km/h (1 Bft) N-NO 0,00 h 0,000 mm 0 W/m 5,9 C 6,4 C 6,0 km/h (2 Bft)
06/01/2022 02:00 6,5 C 92 % 1003,7 hPa 0,2 l/m 6,4 km/h (2 Bft) O-NO 0,00 h 0,000 mm 0 W/m 5,3 C 5,4 C 11,0 km/h (2 Bft)
06/01/2022 03:00 6,2 C 90 % 1004,3 hPa 0,0 l/m 2,4 km/h (1 Bft) O-SO 0,00 h 0,000 mm 0 W/m 4,7 C 5,9 C 5,9 km/h (2 Bft)
06/01/2022 04:00 5,6 C 92 % 1004,5 hPa 0,0 l/m 1,1 km/h (1 Bft) O-NO 0,00 h 0,000 mm 0 W/m 4,4 C 5,5 C 3,8 km/h (1 Bft)
06/01/2022 05:00 5,2 C 92 % 1005,2 hPa 0,0 l/m 0,3 km/h (0 Bft) O-NO 0,00 h 0,000 mm 0 W/m 4,0 C 5,2 C 1,5 km/h (1 Bft)
06/01/2022 06:00 4,7 C 91 % 1006,1 hPa 0,0 l/m 0,7 km/h (0 Bft) O-NO 0,00 h 0,000 mm 0 W/m 3,4 C 4,7 C 1,7 km/h (1 Bft)
06/01/2022 07:00 4,3 C 89 % 1006,8 hPa 0,0 l/m 0,6 km/h (0 Bft) O-NO 0,00 h 0,000 mm 0 W/m 2,6 C 4,3 C 1,8 km/h (1 Bft)
06/01/2022 08:00 4,2 C 80 % 1007,6 hPa 0,0 l/m 1,6 km/h (1 Bft) O-NO 0,00 h 0,000 mm 12 W/m 1,1 C 4,2 C 4,6 km/h (1 Bft)
06/01/2022 09:00 5,3 C 67 % 1008,5 hPa 0,0 l/m 3,1 km/h (1 Bft) O-NO 0,13 h 0,000 mm 50 W/m -0,3 C 5,0 C 6,9 km/h (2 Bft)
06/01/2022 10:00 6,9 C 67 % 1009,5 hPa 0,0 l/m 0,0 km/h (0 Bft) NO 0,17 h 0,025 mm 117 W/m 1,1 C 6,9 C 0,1 km/h (0 Bft)
06/01/2022 11:00 8,3 C 65 % 1010,1 hPa 0,0 l/m 0,0 km/h (0 Bft) N 0,18 h 0,051 mm 177 W/m 2,1 C 8,3 C 0,0 km/h (0 Bft)
06/01/2022 12:00 12,1 C 53 % 1010,1 hPa 0,0 l/m 0,0 km/h (0 Bft) N 1,00 h 0,076 mm 381 W/m 2,7 C 12,1 C 0,0 km/h (0 Bft)
06/01/2022 13:00 13,9 C 43 % 1010,2 hPa 0,0 l/m 0,2 km/h (0 Bft) O-SO 1,00 h 0,203 mm 353 W/m 1,6 C 13,9 C 0,7 km/h (0 Bft)
06/01/2022 14:00 14,1 C 44 % 1010,2 hPa 0,0 l/m 0,6 km/h (0 Bft) O-SO 1,00 h 0,178 mm 284 W/m 1,8 C 14,1 C 2,1 km/h (1 Bft)
06/01/2022 15:00 13,2 C 48 % 1010,9 hPa 0,0 l/m 1,1 km/h (1 Bft) SO 1,00 h 0,152 mm 180 W/m 2,3 C 13,2 C 3,7 km/h (1 Bft)
06/01/2022 16:00 12,4 C 54 % 1011,5 hPa 0,0 l/m 0,4 km/h (0 Bft) SO 1,00 h 0,102 mm 64 W/m 3,3 C 12,4 C 2,3 km/h (1 Bft)
06/01/2022 17:00 10,1 C 59 % 1012,4 hPa 0,0 l/m 0,5 km/h (0 Bft) O-SO 0,00 h 0,051 mm 6 W/m 2,4 C 10,1 C 2,0 km/h (1 Bft)
06/01/2022 18:00 7,8 C 64 % 1013,3 hPa 0,0 l/m 1,8 km/h (1 Bft) O-SO 0,00 h 0,000 mm 0 W/m 1,5 C 7,7 C 4,7 km/h (1 Bft)
06/01/2022 19:00 6,7 C 65 % 1014,1 hPa 0,0 l/m 0,0 km/h (0 Bft) N 0,00 h 0,025 mm 0 W/m 0,7 C 6,7 C 0,5 km/h (0 Bft)
06/01/2022 20:00 6,3 C 63 % 1014,7 hPa 0,0 l/m 0,1 km/h (0 Bft) O-SO 0,00 h 0,025 mm 0 W/m -0,2 C 6,3 C 1,4 km/h (1 Bft)
06/01/2022 21:00 6,1 C 63 % 1015,4 hPa 0,0 l/m 1,1 km/h (0 Bft) O-SO 0,00 h 0,025 mm 0 W/m -0,5 C 6,1 C 3,1 km/h (1 Bft)
06/01/2022 22:00 5,6 C 63 % 1016,0 hPa 0,0 l/m 1,7 km/h (1 Bft) O-SO 0,00 h 0,025 mm 0 W/m -0,9 C 5,6 C 3,9 km/h (1 Bft)
06/01/2022 23:00 5,8 C 60 % 1016,5 hPa 0,0 l/m 2,6 km/h (1 Bft) O 0,00 h 0,025 mm 0 W/m -1,4 C 5,6 C 6,0 km/h (2 Bft)
07/01/2022 00:00 5,4 C 61 % 1016,8 hPa 0,0 l/m 1,3 km/h (1 Bft) O 0,00 h 0,025 mm 0 W/m -1,5 C 5,4 C 3,5 km/h (1 Bft)
07/01/2022 01:00 5,5 C 59 % 1017,1 hPa 0,0 l/m 3,4 km/h (1 Bft) O-NO 0,00 h 0,025 mm 0 W/m -2,0 C 5,2 C 6,8 km/h (2 Bft)
07/01/2022 02:00 5,5 C 58 % 1017,1 hPa 0,0 l/m 1,8 km/h (1 Bft) O-NO 0,00 h 0,025 mm 0 W/m -2,2 C 5,4 C 4,0 km/h (1 Bft)
07/01/2022 03:00 4,9 C 58 % 1017,3 hPa 0,0 l/m 0,1 km/h (0 Bft) O-NO 0,00 h 0,025 mm 0 W/m -2,6 C 4,9 C 0,6 km/h (0 Bft)
07/01/2022 04:00 4,2 C 60 % 1017,4 hPa 0,0 l/m 0,0 km/h (0 Bft) O-NO 0,00 h 0,025 mm 0 W/m -3,0 C 4,2 C 0,4 km/h (0 Bft)
07/01/2022 05:00 3,8 C 60 % 1017,6 hPa 0,0 l/m 0,1 km/h (0 Bft) O-NO 0,00 h 0,025 mm 0 W/m -3,3 C 3,8 C 0,5 km/h (0 Bft)
07/01/2022 06:00 3,7 C 59 % 1017,8 hPa 0,0 l/m 0,9 km/h (0 Bft) O-NO 0,00 h 0,025 mm 0 W/m -3,6 C 3,7 C 1,6 km/h (1 Bft)
07/01/2022 07:00 4,3 C 57 % 1018,0 hPa 0,0 l/m 0,7 km/h (0 Bft) O-NO 0,00 h 0,025 mm 5 W/m -3,5 C 4,3 C 1,5 km/h (1 Bft)
07/01/2022 08:00 4,4 C 60 % 1018,4 hPa 0,0 l/m 0,0 km/h (0 Bft) N 0,65 h 0,000 mm 43 W/m -2,8 C 4,4 C 0,2 km/h (0 Bft)
07/01/2022 09:00 6,6 C 55 % 1018,6 hPa 0,0 l/m 0,0 km/h (0 Bft) N 0,90 h 0,025 mm 153 W/m -1,6 C 6,6 C 0,0 km/h (0 Bft)
07/01/2022 10:00 10,1 C 49 % 1018,6 hPa 0,0 l/m 0,0 km/h (0 Bft) N 0,97 h 0,076 mm 260 W/m -0,2 C 10,1 C 0,0 km/h (0 Bft)
07/01/2022 11:00 11,9 C 46 % 1018,2 hPa 0,0 l/m 0,0 km/h (0 Bft) N 0,78 h 0,127 mm 301 W/m 0,7 C 11,9 C 0,0 km/h (0 Bft)
07/01/2022 12:00 12,6 C 49 % 1017,3 hPa 0,0 l/m 0,0 km/h (0 Bft) N 0,87 h 0,152 mm 341 W/m 2,1 C 12,6 C 0,0 km/h (0 Bft)
07/01/2022 13:00 13,1 C 45 % 1016,0 hPa 0,0 l/m 5,5 km/h (1 Bft) S-SO 0,85 h 0,178 mm 323 W/m 1,3 C 13,1 C 12,4 km/h (3 Bft)
07/01/2022 14:00 12,1 C 43 % 1015,1 hPa 0,0 l/m 10,7 km/h (2 Bft) S-SO 0,65 h 0,203 mm 222 W/m -0,2 C 12,1 C 19,5 km/h (3 Bft)
07/01/2022 15:00 12,4 C 42 % 1014,7 hPa 0,0 l/m 8,4 km/h (2 Bft) S-SO 0,97 h 0,178 mm 194 W/m -0,1 C 12,4 C 16,2 km/h (3 Bft)
07/01/2022 16:00 11,3 C 46 % 1014,6 hPa 0,0 l/m 5,6 km/h (1 Bft) S-SO 1,00 h 0,152 mm 66 W/m 0,2 C 11,3 C 10,4 km/h (2 Bft)
07/01/2022 17:00 9,0 C 50 % 1014,6 hPa 0,0 l/m 1,3 km/h (1 Bft) SO 0,02 h 0,076 mm 7 W/m -0,8 C 8,9 C 3,7 km/h (1 Bft)
07/01/2022 18:00 6,9 C 61 % 1014,4 hPa 0,0 l/m 0,0 km/h (0 Bft) N 0,00 h 0,025 mm 0 W/m -0,2 C 6,9 C 0,0 km/h (0 Bft)
07/01/2022 19:00 5,3 C 66 % 1014,3 hPa 0,0 l/m 0,0 km/h (0 Bft) N 0,00 h 0,025 mm 0 W/m -0,5 C 5,3 C 0,0 km/h (0 Bft)
07/01/2022 20:00 4,7 C 69 % 1014,2 hPa 0,0 l/m 0,0 km/h (0 Bft) N 0,00 h 0,025 mm 0 W/m -0,5 C 4,7 C 0,0 km/h (0 Bft)
07/01/2022 21:00 5,4 C 67 % 1014,7 hPa 0,0 l/m 1,0 km/h (0 Bft) O-NO 0,00 h 0,025 mm 0 W/m -0,3 C 5,4 C 3,1 km/h (1 Bft)
07/01/2022 22:00 6,1 C 62 % 1015,0 hPa 0,0 l/m 0,5 km/h (0 Bft) O-NO 0,00 h 0,025 mm 0 W/m -0,6 C 6,1 C 1,9 km/h (1 Bft)
07/01/2022 23:00 5,5 C 62 % 1015,1 hPa 0,0 l/m 0,3 km/h (0 Bft) O-NO 0,00 h 0,025 mm 0 W/m -1,3 C 5,5 C 0,8 km/h (0 Bft)
08/01/2022 00:00 4,6 C 63 % 1015,4 hPa 0,0 l/m 0,5 km/h (0 Bft) O-NO 0,00 h 0,025 mm 0 W/m -1,7 C 4,6 C 1,3 km/h (1 Bft)
08/01/2022 01:00 4,9 C 63 % 1015,4 hPa 0,0 l/m 1,6 km/h (1 Bft) O-NO 0,00 h 0,025 mm 0 W/m -1,5 C 4,9 C 3,7 km/h (1 Bft)
08/01/2022 02:00 5,7 C 65 % 1015,1 hPa 0,0 l/m 0,8 km/h (0 Bft) O-NO 0,00 h 0,025 mm 0 W/m -0,2 C 5,7 C 2,3 km/h (1 Bft)
08/01/2022 03:00 5,0 C 70 % 1014,6 hPa 0,0 l/m 0,8 km/h (0 Bft) O-NO 0,00 h 0,025 mm 0 W/m -0,1 C 5,0 C 2,5 km/h (1 Bft)
08/01/2022 04:00 4,6 C 74 % 1013,7 hPa 0,0 l/m 0,7 km/h (0 Bft) O-NO 0,00 h 0,025 mm 0 W/m 0,4 C 4,6 C 1,8 km/h (1 Bft)
08/01/2022 05:00 4,5 C 78 % 1012,8 hPa 0,0 l/m 1,1 km/h (0 Bft) O-NO 0,00 h 0,025 mm 0 W/m 1,0 C 4,4 C 2,5 km/h (1 Bft)
08/01/2022 06:00 4,5 C 76 % 1012,7 hPa 0,0 l/m 0,3 km/h (0 Bft) O-NO 0,00 h 0,025 mm 0 W/m 0,6 C 4,5 C 0,9 km/h (0 Bft)
08/01/2022 07:00 4,8 C 71 % 1012,7 hPa 0,0 l/m 0,3 km/h (0 Bft) O-NO 0,00 h 0,025 mm 0 W/m 0,0 C 4,8 C 1,0 km/h (0 Bft)
08/01/2022 08:00 5,2 C 69 % 1013,2 hPa 0,0 l/m 0,6 km/h (0 Bft) O-NO 0,58 h 0,000 mm 40 W/m 0,0 C 5,2 C 1,0 km/h (0 Bft)
08/01/2022 09:00 8,2 C 61 % 1013,0 hPa 0,0 l/m 0,0 km/h (0 Bft) N 1,00 h 0,025 mm 157 W/m 1,2 C 8,2 C 0,0 km/h (0 Bft)
08/01/2022 10:00 11,0 C 55 % 1013,0 hPa 0,0 l/m 0,0 km/h (0 Bft) N 1,00 h 0,076 mm 264 W/m 2,4 C 11,0 C 0,0 km/h (0 Bft)
08/01/2022 11:00 11,9 C 51 % 1013,2 hPa 0,0 l/m 0,0 km/h (0 Bft) N 0,88 h 0,127 mm 313 W/m 2,1 C 11,9 C 0,0 km/h (0 Bft)
08/01/2022 12:00 13,4 C 56 % 1013,0 hPa 0,0 l/m 0,0 km/h (0 Bft) N 1,00 h 0,152 mm 362 W/m 4,8 C 13,4 C 0,0 km/h (0 Bft)
08/01/2022 13:00 13,6 C 60 % 1012,9 hPa 0,0 l/m 0,5 km/h (0 Bft) S-SE 1,00 h 0,178 mm 347 W/m 5,9 C 13,6 C 1,7 km/h (1 Bft)
08/01/2022 14:00 13,3 C 62 % 1012,7 hPa 0,0 l/m 0,3 km/h (0 Bft) S-SE 1,00 h 0,178 mm 277 W/m 6,2 C 13,3 C 1,3 km/h (1 Bft)
08/01/2022 15:00 13,5 C 66 % 1012,4 hPa 0,0 l/m 0,0 km/h (0 Bft) N 1,00 h 0,152 mm 172 W/m 7,2 C 13,5 C 0,1 km/h (0 Bft)
08/01/2022 16:00 12,6 C 70 % 1012,5 hPa 0,0 l/m 0,0 km/h (0 Bft) N 1,00 h 0,102 mm 65 W/m 7,2 C 12,6 C 0,0 km/h (0 Bft)
08/01/2022 17:00 10,4 C 75 % 1012,1 hPa 0,0 l/m 0,0 km/h (0 Bft) N 0,03 h 0,025 mm 7 W/m 6,1 C 10,4 C 0,0 km/h (0 Bft)
08/01/2022 18:00 8,2 C 82 % 1011,7 hPa 0,0 l/m 0,0 km/h (0 Bft) N 0,00 h 0,000 mm 0 W/m 5,3 C 8,2 C 0,0 km/h (0 Bft)
08/01/2022 19:00 7,2 C 84 % 1010,9 hPa 0,0 l/m 0,0 km/h (0 Bft) N 0,00 h 0,000 mm 0 W/m 4,8 C 7,2 C 0,0 km/h (0 Bft)
08/01/2022 20:00 7,1 C 87 % 1010,6 hPa 0,0 l/m 0,0 km/h (0 Bft) N 0,00 h 0,000 mm 0 W/m 5,1 C 7,1 C 0,0 km/h (0 Bft)
08/01/2022 21:00 7,0 C 84 % 1009,7 hPa 0,0 l/m 1,5 km/h (1 Bft) O-NO 0,00 h 0,000 mm 0 W/m 4,4 C 6,9 C 4,7 km/h (1 Bft)
08/01/2022 22:00 8,3 C 69 % 1008,7 hPa 0,0 l/m 14,7 km/h (3 Bft) O-SO 0,00 h 0,025 mm 0 W/m 3,0 C 5,9 C 25,3 km/h (4 Bft)
08/01/2022 23:00 8,3 C 70 % 1008,5 hPa 0,0 l/m 12,9 km/h (3 Bft) O-SO 0,00 h 0,051 mm 0 W/m 3,1 C 6,2 C 22,4 km/h (4 Bft)
09/01/2022 00:00 8,3 C 70 % 1007,5 hPa 0,0 l/m 10,6 km/h (2 Bft) O-SO 0,00 h 0,051 mm 0 W/m 3,2 C 6,5 C 19,2 km/h (3 Bft)
09/01/2022 01:00 7,8 C 74 % 1007,0 hPa 0,0 l/m 5,1 km/h (1 Bft) O-SO 0,00 h 0,051 mm 0 W/m 3,4 C 7,1 C 10,1 km/h (2 Bft)
09/01/2022 02:00 8,4 C 73 % 1005,5 hPa 0,0 l/m 7,7 km/h (2 Bft) S-SO 0,00 h 0,025 mm 0 W/m 3,9 C 7,3 C 13,1 km/h (3 Bft)
09/01/2022 03:00 8,7 C 75 % 1003,8 hPa 0,0 l/m 8,4 km/h (2 Bft) S-SO 0,00 h 0,025 mm 0 W/m 4,5 C 7,5 C 13,8 km/h (3 Bft)
09/01/2022 04:00 8,4 C 78 % 1002,2 hPa 0,0 l/m 7,8 km/h (2 Bft) SO 0,00 h 0,025 mm 0 W/m 4,7 C 7,3 C 14,5 km/h (3 Bft)
09/01/2022 05:00 8,9 C 72 % 1001,0 hPa 0,0 l/m 10,2 km/h (2 Bft) O-SO 0,00 h 0,025 mm 0 W/m 4,1 C 7,4 C 18,8 km/h (3 Bft)
09/01/2022 06:00 9,5 C 56 % 1000,9 hPa 0,0 l/m 5,1 km/h (1 Bft) S-SO 0,00 h 0,051 mm 0 W/m 1,2 C 9,1 C 9,8 km/h (2 Bft)
09/01/2022 07:00 9,2 C 53 % 1001,2 hPa 0,0 l/m 4,9 km/h (1 Bft) S-SO 0,00 h 0,051 mm 0 W/m -0,1 C 8,7 C 9,7 km/h (2 Bft)
09/01/2022 08:00 10,3 C 39 % 1001,6 hPa 0,0 l/m 14,4 km/h (3 Bft) NO 0,45 h 0,025 mm 41 W/m -2,9 C 10,1 C 25,9 km/h (4 Bft)
09/01/2022 09:00 11,2 C 36 % 1002,5 hPa 0,0 l/m 17,3 km/h (3 Bft) O-NO 1,00 h 0,127 mm 164 W/m -3,4 C 11,2 C 30,4 km/h (5 Bft)
09/01/2022 10:00 12,1 C 32 % 1003,6 hPa 0,0 l/m 13,5 km/h (3 Bft) O-NO 1,00 h 0,203 mm 280 W/m -4,1 C 12,1 C 25,5 km/h (4 Bft)
09/01/2022 11:00 12,5 C 32 % 1004,3 hPa 0,0 l/m 10,8 km/h (2 Bft) O-NO 1,00 h 0,254 mm 355 W/m -3,6 C 12,5 C 20,8 km/h (4 Bft)
09/01/2022 12:00 13,3 C 31 % 1004,2 hPa 0,0 l/m 7,9 km/h (2 Bft) O-NO 1,00 h 0,254 mm 382 W/m -3,3 C 13,3 C 17,0 km/h (3 Bft)
09/01/2022 13:00 13,6 C 31 % 1003,6 hPa 0,0 l/m 6,9 km/h (2 Bft) O-NO 1,00 h 0,254 mm 362 W/m -3,1 C 13,6 C 14,8 km/h (3 Bft)
09/01/2022 14:00 14,0 C 31 % 1003,0 hPa 0,0 l/m 4,6 km/h (1 Bft) O-NO 1,00 h 0,254 mm 295 W/m -2,8 C 14,0 C 12,0 km/h (2 Bft)
09/01/2022 15:00 13,8 C 33 % 1002,9 hPa 0,0 l/m 5,9 km/h (2 Bft) O-NO 1,00 h 0,203 mm 190 W/m -2,1 C 13,8 C 14,5 km/h (3 Bft)
09/01/2022 16:00 12,1 C 36 % 1002,7 hPa 0,0 l/m 8,0 km/h (2 Bft) O-NO 0,62 h 0,152 mm 62 W/m -2,6 C 12,1 C 16,4 km/h (3 Bft)
09/01/2022 17:00 10,3 C 39 % 1002,6 hPa 0,0 l/m 11,1 km/h (2 Bft) NO 0,00 h 0,102 mm 6 W/m -3,0 C 9,8 C 20,8 km/h (4 Bft)
09/01/2022 18:00 9,7 C 41 % 1003,0 hPa 0,0 l/m 9,8 km/h (2 Bft) O-NO 0,00 h 0,076 mm 0 W/m -2,8 C 8,3 C 17,9 km/h (3 Bft)
09/01/2022 19:00 9,4 C 42 % 1003,5 hPa 0,0 l/m 5,8 km/h (2 Bft) O-NO 0,00 h 0,076 mm 0 W/m -2,8 C 8,7 C 11,9 km/h (2 Bft)
09/01/2022 20:00 8,9 C 42 % 1003,7 hPa 0,0 l/m 4,2 km/h (1 Bft) O-NO 0,00 h 0,051 mm 0 W/m -3,2 C 8,5 C 8,0 km/h (2 Bft)
09/01/2022 21:00 7,8 C 45 % 1003,9 hPa 0,0 l/m 2,8 km/h (1 Bft) S 0,00 h 0,051 mm 0 W/m -3,3 C 7,7 C 4,3 km/h (1 Bft)
09/01/2022 22:00 7,6 C 47 % 1003,9 hPa 0,0 l/m 2,5 km/h (1 Bft) E-NE 0,00 h 0,051 mm 0 W/m -3,1 C 7,4 C 4,4 km/h (1 Bft)
09/01/2022 23:00 6,6 C 54 % 1004,3 hPa 0,0 l/m 2,1 km/h (1 Bft) S-SO 0,00 h 0,051 mm 0 W/m -1,9 C 6,5 C 3,5 km/h (1 Bft)
Min-Date _ 07/01/22 09/01/22 05/01/22 - 03/01/22 - - - - 09/01/22 06/01/22 03/01/22
_ Min-Heure 06:11 13:01 15:30 - 00:00 - - - - 10:22 02:30 00:00
Minimum _ 3,6 C 29 % 995,6 hPa - 0,0 km/h (0 Bft) - - - - -4,9 C 1,8 C 0,0 km/h (0 Bft)
Max-Date _ 05/01/22 05/01/22 03/01/22 06/01/22 06/01/22 - 03/01/22 09/01/22 05/01/22 05/01/22 05/01/22 09/01/22
_ Max-Heure 12:54 10:29 00:00 01:31 02:30 - 08:55 11:00 13:14 12:42 12:54 09:37
Maximum _ 16,4 C 99 % 1023,1 hPa 5,2 l/m 27,4 km/h
O-NO (4 Bft)
- 0,02 h 0,254 mm 494 W/m 13,2 C 16,4 C 46,7 km/h
NO (6 Bft)
Moyenne _ 9,2 C 74 % 1010,2 hPa #14,4 l/m 1,9 km/h (1 Bft) O-NO #38:17 h #8,162 mm 162 W/m 4,3 C 9,1 C 4,0 km/h (1 Bft)
Roquefort les pins